Time;durP1;ratioP1;P1;durP2;ratioP2;P2;SDS_P1;SDS_P2;PMS_P1;PMS_P2;Temp;Humidity;BMP_temperature;BMP_pressure;BME280_temperature;BME280_humidity;BME280_pressure;Samples;Min_cycle;Max_cycle;Signal;HPM_P1;HPM_P2
2021/11/01 00:02:06;;;;;;;24.25;12.70;;;;;;;;;;5090906;28;20028;-68
2021/11/01 00:04:32;;;;;;;27.23;13.25;;;;;;;;;;5091844;28;20020;-67
2021/11/01 00:06:58;;;;;;;22.95;13.00;;;;;;;;;;5090692;28;20423;-67
2021/11/01 00:09:28;;;;;;;27.25;13.65;;;;;;;;;;5090703;28;20394;-67
2021/11/01 00:11:54;;;;;;;26.45;12.32;;;;;;;;;;5091849;28;20017;-67
2021/11/01 00:14:20;;;;;;;25.58;12.02;;;;;;;;;;5092056;28;20621;-68
2021/11/01 00:16:46;;;;;;;26.80;11.68;;;;;;;;;;5092151;28;20028;-66
2021/11/01 00:19:12;;;;;;;22.88;11.73;;;;;;;;;;5092030;28;20023;-68
2021/11/01 00:21:38;;;;;;;25.02;12.15;;;;;;;;;;5092016;28;20016;-66
2021/11/01 00:24:04;;;;;;;28.33;13.30;;;;;;;;;;5091445;28;20099;-68
2021/11/01 00:26:30;;;;;;;29.63;11.35;;;;;;;;;;5090511;28;20043;-68
2021/11/01 00:28:56;;;;;;;27.02;12.32;;;;;;;;;;5091974;28;20046;-66
2021/11/01 00:31:22;;;;;;;25.23;11.73;;;;;;;;;;5091932;28;20028;-66
2021/11/01 00:33:48;;;;;;;28.55;11.60;;;;;;;;;;5091656;28;20024;-67
2021/11/01 00:36:14;;;;;;;33.53;11.98;;;;;;;;;;5092735;28;20080;-67
2021/11/01 00:38:42;;;;;;;22.58;11.57;;;;;;;;;;5094629;28;20028;-68
2021/11/01 00:41:08;;;;;;;21.83;11.25;;;;;;;;;;5095852;28;20028;-67
2021/11/01 00:43:34;;;;;;;25.08;12.88;;;;;;;;;;5095763;28;20027;-67
2021/11/01 00:46:00;;;;;;;24.48;11.82;;;;;;;;;;5095909;28;20539;-68
2021/11/01 00:48:26;;;;;;;22.90;10.80;;;;;;;;;;5094646;28;20121;-68
2021/11/01 00:50:52;;;;;;;24.23;11.88;;;;;;;;;;5094502;28;20031;-68
2021/11/01 00:53:18;;;;;;;22.75;10.88;;;;;;;;;;5094054;28;20024;-67
2021/11/01 00:55:51;;;;;;;31.48;12.55;;;;;;;;;;5094377;28;20020;-68
2021/11/01 00:58:18;;;;;;;28.52;11.20;;;;;;;;;;5095518;28;20032;-66
2021/11/01 01:00:44;;;;;;;27.25;12.13;;;;;;;;;;5095477;28;20050;-67
2021/11/01 01:03:11;;;;;;;25.90;11.23;;;;;;;;;;5095275;28;20103;-67
2021/11/01 01:05:38;;;;;;;24.42;11.10;;;;;;;;;;5095435;28;20363;-68
2021/11/01 01:08:04;;;;;;;24.13;11.82;;;;;;;;;;5095672;28;20073;-67
2021/11/01 01:10:30;;;;;;;26.60;11.63;;;;;;;;;;5095665;28;20445;-67
2021/11/01 01:12:56;;;;;;;29.45;11.40;;;;;;;;;;5094114;28;20614;-67
2021/11/01 01:15:26;;;;;;;26.33;11.93;;;;;;;;;;5095227;28;20399;-67
2021/11/01 01:17:59;;;;;;;29.13;11.35;;;;;;;;;;5095471;28;20024;-67
2021/11/01 01:20:25;;;;;;;23.80;11.65;;;;;;;;;;5095389;28;20078;-68
2021/11/01 01:22:51;;;;;;;21.48;11.23;;;;;;;;;;5093592;28;20093;-67
2021/11/01 01:25:24;;;;;;;26.58;10.90;;;;;;;;;;5094962;28;20028;-68
2021/11/01 01:27:51;;;;;;;22.02;11.18;;;;;;;;;;5093889;28;20043;-68
2021/11/01 01:30:17;;;;;;;26.42;11.07;;;;;;;;;;5093773;28;20028;-68
2021/11/01 01:32:44;;;;;;;28.67;11.20;;;;;;;;;;5093788;28;20024;-68
2021/11/01 01:35:11;;;;;;;27.67;11.00;;;;;;;;;;5093387;28;20217;-67
2021/11/01 01:37:37;;;;;;;22.00;10.35;;;;;;;;;;5093824;28;20035;-68
2021/11/01 01:40:04;;;;;;;22.02;10.73;;;;;;;;;;5094915;28;20035;-65
2021/11/01 01:42:30;;;;;;;19.85;10.50;;;;;;;;;;5093675;28;20020;-67
2021/11/01 01:44:56;;;;;;;23.27;10.52;;;;;;;;;;5094750;28;20024;-67
2021/11/01 01:47:22;;;;;;;28.48;10.35;;;;;;;;;;5093972;28;20020;-67
2021/11/01 01:49:48;;;;;;;23.92;10.02;;;;;;;;;;5093010;28;20463;-66
2021/11/01 01:52:14;;;;;;;23.48;10.02;;;;;;;;;;5093284;28;20021;-67
2021/11/01 01:54:40;;;;;;;30.42;10.43;;;;;;;;;;5094283;28;20103;-67
2021/11/01 01:57:06;;;;;;;22.63;9.38;;;;;;;;;;5093243;28;20461;-67
2021/11/01 01:59:32;;;;;;;26.48;9.43;;;;;;;;;;5094418;28;20024;-67
2021/11/01 02:01:58;;;;;;;23.17;7.40;;;;;;;;;;5094366;28;20399;-66
2021/11/01 02:04:25;;;;;;;23.08;6.05;;;;;;;;;;5094310;28;20020;-68
2021/11/01 02:07:08;;;;;;;21.88;6.03;;;;;;;;;;5093220;28;20392;-66
2021/11/01 02:09:41;;;;;;;22.10;6.30;;;;;;;;;;5094225;28;20051;-66
2021/11/01 02:12:10;;;;;;;20.30;5.28;;;;;;;;;;5092597;28;20084;-67
2021/11/01 02:14:39;;;;;;;21.27;5.65;;;;;;;;;;5093881;28;20020;-66
2021/11/01 02:17:05;;;;;;;23.55;6.60;;;;;;;;;;5093980;28;20067;-67
2021/11/01 02:19:37;;;;;;;21.55;5.97;;;;;;;;;;5094037;28;20100;-67
2021/11/01 02:22:06;;;;;;;20.45;5.85;;;;;;;;;;5092621;28;20146;-67
2021/11/01 02:25:05;;;;;;;20.40;5.57;;;;;;;;;;5093909;28;20093;-66
2021/11/01 02:27:34;;;;;;;22.25;5.15;;;;;;;;;;5048641;28;20548;-67
2021/11/01 02:30:01;;;;;;;23.15;5.30;;;;;;;;;;5094015;28;20068;-66
2021/11/01 02:32:27;;;;;;;24.05;5.22;;;;;;;;;;5092378;28;20028;-67
2021/11/01 02:34:54;;;;;;;24.88;6.13;;;;;;;;;;5092087;28;20034;-66
2021/11/01 02:37:20;;;;;;;29.70;7.20;;;;;;;;;;5093594;28;20051;-67
2021/11/01 02:39:47;;;;;;;25.23;5.53;;;;;;;;;;5092384;28;20390;-66
2021/11/01 02:42:14;;;;;;;18.42;4.80;;;;;;;;;;5093527;28;20051;-69
2021/11/01 02:44:49;;;;;;;18.55;5.60;;;;;;;;;;5091882;28;20119;-66
2021/11/01 02:47:15;;;;;;;22.73;5.47;;;;;;;;;;5091976;28;20437;-67
2021/11/01 02:49:41;;;;;;;23.05;5.28;;;;;;;;;;5092073;28;20035;-66
2021/11/01 02:52:07;;;;;;;17.65;5.75;;;;;;;;;;5093414;28;20032;-67
2021/11/01 02:54:33;;;;;;;23.17;5.88;;;;;;;;;;5091863;28;20031;-67
2021/11/01 02:57:00;;;;;;;27.63;8.88;;;;;;;;;;5093325;28;20099;-67
2021/11/01 02:59:26;;;;;;;25.83;5.65;;;;;;;;;;5093123;28;20444;-68
2021/11/01 03:01:52;;;;;;;17.38;5.25;;;;;;;;;;5092177;28;20055;-68
2021/11/01 03:04:19;;;;;;;21.45;5.20;;;;;;;;;;5091698;28;20024;-67
2021/11/01 03:06:45;;;;;;;20.23;5.03;;;;;;;;;;5091765;28;20031;-68
2021/11/01 03:09:11;;;;;;;18.38;4.35;;;;;;;;;;5093269;28;20475;-67
2021/11/01 03:11:37;;;;;;;18.70;4.93;;;;;;;;;;5093213;28;20399;-68
2021/11/01 03:14:03;;;;;;;21.33;5.00;;;;;;;;;;5092864;28;20107;-66
2021/11/01 03:16:29;;;;;;;17.67;4.78;;;;;;;;;;5093040;28;20054;-67
2021/11/01 03:19:03;;;;;;;17.20;4.55;;;;;;;;;;5092914;28;20027;-68
2021/11/01 03:21:29;;;;;;;21.98;4.85;;;;;;;;;;5092910;28;20471;-68
2021/11/01 03:23:56;;;;;;;18.63;4.55;;;;;;;;;;5092567;28;20016;-67
2021/11/01 03:26:23;;;;;;;17.33;5.22;;;;;;;;;;5091428;28;20013;-67
2021/11/01 03:28:51;;;;;;;24.97;5.07;;;;;;;;;;5092778;28;20073;-68
2021/11/01 03:31:18;;;;;;;18.35;4.78;;;;;;;;;;5092843;28;20038;-66
2021/11/01 03:33:44;;;;;;;17.85;4.30;;;;;;;;;;5091047;28;20403;-68
2021/11/01 03:36:11;;;;;;;27.13;7.60;;;;;;;;;;5091135;28;20027;-67
2021/11/01 03:38:38;;;;;;;21.05;5.00;;;;;;;;;;5092600;28;20024;-67
2021/11/01 03:41:10;;;;;;;22.65;5.60;;;;;;;;;;5092795;28;20411;-67
2021/11/01 03:43:45;;;;;;;15.40;4.50;;;;;;;;;;5092361;28;20028;-66
2021/11/01 03:46:12;;;;;;;23.08;5.22;;;;;;;;;;5092267;28;20035;-66
2021/11/01 03:48:40;;;;;;;20.60;4.88;;;;;;;;;;5091013;28;20097;-65
2021/11/01 03:51:10;;;;;;;20.60;5.10;;;;;;;;;;5092320;28;20036;-66
2021/11/01 03:53:37;;;;;;;16.75;4.60;;;;;;;;;;5091222;28;20447;-66
2021/11/01 03:56:04;;;;;;;19.77;5.57;;;;;;;;;;5092364;28;20028;-67
2021/11/01 03:58:30;;;;;;;17.23;4.68;;;;;;;;;;5092305;28;20028;-66
2021/11/01 04:00:56;;;;;;;21.52;4.90;;;;;;;;;;5090766;28;20169;-66
2021/11/01 04:03:24;;;;;;;18.55;5.10;;;;;;;;;;5091836;28;20035;-65
2021/11/01 04:05:54;;;;;;;18.25;5.47;;;;;;;;;;5092137;28;20024;-66
2021/11/01 04:08:21;;;;;;;17.70;4.22;;;;;;;;;;5092231;28;20109;-66
2021/11/01 04:10:47;;;;;;;20.80;4.78;;;;;;;;;;5091636;28;20034;-66
2021/11/01 04:13:13;;;;;;;19.05;4.95;;;;;;;;;;5090908;28;20119;-66
2021/11/01 04:15:44;;;;;;;19.85;5.15;;;;;;;;;;5090450;28;20036;-67
2021/11/01 04:18:13;;;;;;;17.88;4.78;;;;;;;;;;5092013;28;20023;-67
2021/11/01 04:23:14;;;;;;;15.35;4.18;;;;;;;;;;5092062;28;20487;-67
2021/11/01 04:25:40;;;;;;;19.17;4.63;;;;;;;;;;5091835;28;20031;-66
2021/11/01 04:28:06;;;;;;;14.70;4.20;;;;;;;;;;5092202;28;20028;-66
2021/11/01 04:30:40;;;;;;;16.45;4.68;;;;;;;;;;5091714;28;20111;-67
2021/11/01 04:33:08;;;;;;;15.70;4.03;;;;;;;;;;5090144;28;20024;-65
2021/11/01 04:35:35;;;;;;;20.05;5.18;;;;;;;;;;5091511;28;20475;-66
2021/11/01 04:42:15;;;;;;;17.15;4.63;;;;;;;;;;5068302;28;20407;-66
2021/11/01 04:54:45;;;;;;;22.45;5.38;;;;;;;;;;5091364;28;20165;-67
2021/11/01 04:57:11;;;;;;;16.48;4.45;;;;;;;;;;5091476;28;20052;-67
2021/11/01 04:59:38;;;;;;;17.98;4.90;;;;;;;;;;5091488;28;20652;-66
2021/11/01 05:02:04;;;;;;;17.35;4.68;;;;;;;;;;5091585;28;20429;-66
2021/11/01 05:04:36;;;;;;;18.98;5.07;;;;;;;;;;5091175;28;20471;-66
2021/11/01 05:07:04;;;;;;;13.05;3.83;;;;;;;;;;5091343;28;20399;-66
2021/11/01 05:09:44;;;;;;;18.75;4.65;;;;;;;;;;5091461;28;20024;-67
2021/11/01 05:12:26;;;;;;;19.23;4.55;;;;;;;;;;5090199;28;20109;-66
2021/11/01 05:15:06;;;;;;;17.85;4.50;;;;;;;;;;5091194;28;20024;-67
2021/11/01 05:30:14;;;;;;;17.42;4.38;;;;;;;;;;5074557;28;20028;-62
2021/11/01 05:32:42;;;;;;;14.93;4.47;;;;;;;;;;5074468;28;20031;-61
2021/11/01 05:35:08;;;;;;;19.65;4.95;;;;;;;;;;5066666;28;20024;-63
2021/11/01 05:37:35;;;;;;;14.25;3.95;;;;;;;;;;5076496;28;20024;-62
2021/11/01 05:40:01;;;;;;;15.60;4.13;;;;;;;;;;5076616;28;20031;-63
2021/11/01 05:42:27;;;;;;;17.92;5.05;;;;;;;;;;5076693;28;20054;-63
2021/11/01 05:44:53;;;;;;;16.52;4.07;;;;;;;;;;5094360;28;20047;-62
2021/11/01 05:47:19;;;;;;;20.48;5.30;;;;;;;;;;5076480;28;20114;-62
2021/11/01 05:49:46;;;;;;;20.08;5.18;;;;;;;;;;5076680;28;20393;-63
2021/11/01 05:52:23;;;;;;;16.25;3.97;;;;;;;;;;5065906;28;20096;-62
2021/11/01 05:54:53;;;;;;;21.17;4.38;;;;;;;;;;5056038;28;20036;-63
2021/11/01 05:57:27;;;;;;;16.25;4.28;;;;;;;;;;5056054;28;20020;-63
2021/11/01 06:02:47;;;;;;;17.23;4.50;;;;;;;;;;5074083;28;20036;-62
2021/11/01 06:05:27;;;;;;;18.73;4.75;;;;;;;;;;5073780;28;20066;-62
2021/11/01 06:10:51;;;;;;;15.90;4.70;;;;;;;;;;5074169;28;20032;-62
2021/11/01 06:13:31;;;;;;;21.63;5.30;;;;;;;;;;5073691;28;20044;-62
2021/11/01 06:15:58;;;;;;;16.85;4.82;;;;;;;;;;5073504;28;20035;-62
2021/11/01 06:18:35;;;;;;;18.58;5.75;;;;;;;;;;5080015;28;20031;-62
2021/11/01 06:21:01;;;;;;;20.50;5.82;;;;;;;;;;5094094;28;20020;-62
2021/11/01 06:23:27;;;;;;;19.52;5.45;;;;;;;;;;5093653;28;20047;-63
2021/11/01 06:25:53;;;;;;;19.30;5.15;;;;;;;;;;5075561;28;20016;-63
2021/11/01 06:28:19;;;;;;;17.10;5.72;;;;;;;;;;5075420;28;20118;-61
2021/11/01 06:30:55;;;;;;;15.65;4.38;;;;;;;;;;5075149;28;20399;-60
2021/11/01 07:16:27;;;;;;;;;;;;;;;;;;;;;
2021/11/01 08:30:21;;;;;;;13.90;4.43;;;;;;;;;;5067483;28;20047;-65
2021/11/01 08:43:43;;;;;;;14.60;4.50;;;;;;;;;;5092080;28;20028;-64
2021/11/01 08:48:47;;;;;;;17.83;6.75;;;;;;;;;;5092410;28;20028;-63
2021/11/01 09:07:22;;;;;;;12.98;5.20;;;;;;;;;;5095719;28;20025;-63
2021/11/01 09:25:56;;;;;;;15.50;6.00;;;;;;;;;;5074775;28;20036;-64
2021/11/01 09:36:43;;;;;;;15.25;5.82;;;;;;;;;;5074817;28;20062;-64
2021/11/01 09:41:54;;;;;;;14.75;5.97;;;;;;;;;;5075060;28;20594;-64
2021/11/01 09:44:24;;;;;;;15.23;6.15;;;;;;;;;;5074395;28;20025;-64
2021/11/01 09:46:54;;;;;;;14.73;5.82;;;;;;;;;;5056484;28;20021;-64
2021/11/01 09:49:20;;;;;;;16.33;5.90;;;;;;;;;;5056375;28;20050;-63
2021/11/01 09:51:57;;;;;;;17.13;6.60;;;;;;;;;;5074420;28;20472;-64
2021/11/01 09:54:25;;;;;;;20.17;6.65;;;;;;;;;;5056086;28;20073;-63
2021/11/01 09:56:58;;;;;;;13.87;5.90;;;;;;;;;;5056295;28;20119;-64
2021/11/01 09:59:26;;;;;;;15.85;6.28;;;;;;;;;;5056191;28;20048;-64
2021/11/01 10:01:53;;;;;;;19.80;7.67;;;;;;;;;;5056547;28;20021;-63
2021/11/01 10:04:23;;;;;;;16.25;6.63;;;;;;;;;;5055960;28;20029;-63
2021/11/01 10:07:15;;;;;;;15.13;6.45;;;;;;;;;;5056269;28;20027;-64
2021/11/01 10:09:42;;;;;;;17.40;6.80;;;;;;;;;;5073627;28;20039;-63
2021/11/01 10:12:21;;;;;;;16.00;6.50;;;;;;;;;;5056203;28;20053;-63
2021/11/01 10:14:51;;;;;;;14.35;6.47;;;;;;;;;;5073586;28;20032;-63
2021/11/01 10:17:34;;;;;;;14.13;6.10;;;;;;;;;;5073595;28;20040;-64
2021/11/01 10:20:01;;;;;;;17.60;7.10;;;;;;;;;;5066719;28;20035;-63
2021/11/01 10:22:33;;;;;;;15.40;6.60;;;;;;;;;;5071681;28;20108;-63
2021/11/01 10:25:01;;;;;;;18.85;6.65;;;;;;;;;;5072163;28;20027;-65
2021/11/01 10:27:27;;;;;;;;;;;;;;;;;;5072213;28;20141;-66
2021/11/01 10:29:55;;;;;;;17.67;6.93;;;;;;;;;;5073713;28;19927;-64
2021/11/01 10:32:43;;;;;;;14.82;6.85;;;;;;;;;;5072079;28;20021;-64
2021/11/01 10:35:15;;;;;;;17.58;6.82;;;;;;;;;;5073440;28;20028;-65
2021/11/01 10:37:55;;;;;;;17.65;6.60;;;;;;;;;;5074022;28;20021;-65
2021/11/01 10:40:29;;;;;;;14.90;6.63;;;;;;;;;;5073346;28;20029;-65
2021/11/01 10:43:05;;;;;;;13.25;6.50;;;;;;;;;;5071976;28;20027;-63
2021/11/01 10:45:51;;;;;;;14.80;6.68;;;;;;;;;;5072090;28;20017;-64
2021/11/01 11:10:51;;;;;;;15.98;8.07;;;;;;;;;;5072804;28;19905;-63
2021/11/01 11:10:56;;;;;;;17.80;8.57;;;;;;;;;;5091016;28;20039;-65
2021/11/01 11:13:25;;;;;;;18.70;9.80;;;;;;;;;;5071870;28;20570;-64
2021/11/01 11:15:54;;;;;;;;;;;;;;;;;;5089849;28;20059;-64
2021/11/01 11:21:02;;;;;;;14.77;8.82;;;;;;;;;;5068139;28;20044;-64
2021/11/01 11:33:48;;;;;;;17.17;8.60;;;;;;;;;;5068711;28;20035;-65
2021/11/01 11:49:30;;;;;;;15.82;8.50;;;;;;;;;;5067950;28;20036;-65
2021/11/01 11:52:00;;;;;;;18.75;8.30;;;;;;;;;;5067858;28;20778;-66
2021/11/01 11:54:38;;;;;;;16.73;8.60;;;;;;;;;;5066875;28;20028;-66
2021/11/01 11:57:15;;;;;;;19.88;9.73;;;;;;;;;;5069151;28;20044;-67
2021/11/01 11:59:41;;;;;;;15.77;8.98;;;;;;;;;;5070665;28;20480;-66
2021/11/01 12:02:08;;;;;;;16.98;9.52;;;;;;;;;;5069299;28;20039;-67
2021/11/01 12:04:44;;;;;;;14.57;8.82;;;;;;;;;;5069091;28;20052;-66
2021/11/01 12:07:14;;;;;;;17.75;9.85;;;;;;;;;;5069485;28;20111;-66
2021/11/01 12:10:03;;;;;;;17.33;9.68;;;;;;;;;;5070638;28;20017;-65
2021/11/01 12:17:49;;;;;;;17.13;9.07;;;;;;;;;;5070557;28;20537;-67
2021/11/01 12:20:16;;;;;;;17.92;10.25;;;;;;;;;;5070521;28;20060;-67
2021/11/01 12:22:44;;;;;;;14.77;8.85;;;;;;;;;;5069202;28;20020;-67
2021/11/01 12:25:15;;;;;;;16.90;9.23;;;;;;;;;;5070494;28;20099;-67
2021/11/01 12:27:43;;;;;;;16.02;9.07;;;;;;;;;;5068953;28;20024;-67
2021/11/01 12:30:11;;;;;;;15.77;8.95;;;;;;;;;;5070598;28;20071;-65
2021/11/01 12:32:38;;;;;;;17.08;9.40;;;;;;;;;;5069975;28;20175;-64
2021/11/01 12:35:08;;;;;;;17.00;8.82;;;;;;;;;;5068665;28;20503;-67
2021/11/01 12:37:39;;;;;;;18.13;9.02;;;;;;;;;;5068761;28;20115;-68
2021/11/01 12:40:24;;;;;;;15.88;8.60;;;;;;;;;;5069091;28;20056;-67
2021/11/01 12:59:40;;;;;;;21.02;9.48;;;;;;;;;;5070100;28;20036;-68
2021/11/01 13:02:08;;;;;;;19.77;8.80;;;;;;;;;;5068933;28;20429;-67
2021/11/01 13:04:38;;;;;;;16.20;8.45;;;;;;;;;;5070152;28;20107;-67
2021/11/01 13:09:46;;;;;;;16.98;9.00;;;;;;;;;;5069949;28;20078;-67
2021/11/01 13:15:02;;;;;;;20.50;9.00;;;;;;;;;;5070020;28;20060;-67
2021/11/01 13:20:16;;;;;;;;;;;;;;;;;;5070374;28;20166;-67
2021/11/01 13:22:52;;;;;;;15.00;9.00;;;;;;;;;;5069694;28;19935;-68
2021/11/01 13:25:34;;;;;;;16.42;9.55;;;;;;;;;;5068420;28;20364;-67
2021/11/01 13:38:52;;;;;;;16.38;9.07;;;;;;;;;;5069975;28;20033;-66
2021/11/01 13:41:29;;;;;;;16.60;9.20;;;;;;;;;;5069900;28;20018;-67
2021/11/01 13:44:07;;;;;;;15.77;9.10;;;;;;;;;;5070020;28;20032;-67
2021/11/01 13:46:33;;;;;;;15.07;8.85;;;;;;;;;;5072191;28;20066;-68
2021/11/01 13:48:59;;;;;;;15.32;8.95;;;;;;;;;;5072454;28;20462;-66
2021/11/01 13:51:29;;;;;;;16.00;9.10;;;;;;;;;;5072893;28;20024;-65
2021/11/01 13:56:42;;;;;;;15.55;8.80;;;;;;;;;;5072955;28;20127;-66
2021/11/01 13:59:22;;;;;;;16.13;8.75;;;;;;;;;;5072890;28;20058;-66
2021/11/01 14:20:43;;;;;;;15.77;8.30;;;;;;;;;;5072574;28;20025;-65
2021/11/01 14:29:09;;;;;;;15.05;9.05;;;;;;;;;;5072839;28;20059;-66
2021/11/01 14:31:52;;;;;;;16.40;9.38;;;;;;;;;;5072283;28;20332;-67
2021/11/01 14:59:36;;;;;;;15.90;9.45;;;;;;;;;;5071649;28;20138;-67
2021/11/01 15:23:34;;;;;;;16.02;9.38;;;;;;;;;;5071345;28;20025;-67
2021/11/01 15:39:47;;;;;;;16.98;9.43;;;;;;;;;;5071429;28;20545;-67
2021/11/01 15:43:00;;;;;;;16.85;9.88;;;;;;;;;;5071004;28;20373;-65
2021/11/01 16:20:33;;;;;;;15.48;8.73;;;;;;;;;;5070339;28;20080;-65
2021/11/01 16:23:13;;;;;;;17.10;8.90;;;;;;;;;;5070672;28;20052;-65
2021/11/01 16:25:39;;;;;;;17.23;9.10;;;;;;;;;;5069592;28;20053;-66
2021/11/01 16:28:06;;;;;;;18.13;9.23;;;;;;;;;;5070430;28;20040;-66
2021/11/01 16:30:33;;;;;;;16.40;9.88;;;;;;;;;;5070487;28;20024;-66
2021/11/01 16:33:04;;;;;;;17.10;9.30;;;;;;;;;;5070392;28;20106;-67
2021/11/01 16:35:42;;;;;;;15.32;7.97;;;;;;;;;;5070797;28;20028;-67
2021/11/01 16:38:19;;;;;;;15.27;8.57;;;;;;;;;;5070684;28;20462;-67
2021/11/01 16:40:45;;;;;;;16.48;8.40;;;;;;;;;;5070160;28;20035;-67
2021/11/01 16:43:15;;;;;;;15.63;8.60;;;;;;;;;;5069028;28;20017;-66
2021/11/01 16:45:44;;;;;;;16.33;8.32;;;;;;;;;;5069136;28;20453;-66
2021/11/01 16:48:10;;;;;;;20.63;8.52;;;;;;;;;;5070086;28;20103;-67
2021/11/01 16:50:37;;;;;;;16.30;8.30;;;;;;;;;;5070180;28;20072;-68
2021/11/01 16:53:03;;;;;;;16.08;8.50;;;;;;;;;;5070117;28;20507;-68
2021/11/01 16:55:40;;;;;;;22.48;8.98;;;;;;;;;;5070012;28;20103;-67
2021/11/01 16:58:14;;;;;;;18.65;7.68;;;;;;;;;;4366005;28;10000752;-65
2021/11/01 17:00:53;;;;;;;15.68;7.95;;;;;;;;;;5046165;28;20427;-65
2021/11/01 17:03:34;;;;;;;14.93;7.90;;;;;;;;;;5046361;28;20541;-65
2021/11/01 17:06:10;;;;;;;18.30;7.80;;;;;;;;;;5047641;28;20025;-66
2021/11/01 17:24:55;;;;;;;18.83;8.63;;;;;;;;;;5070524;28;20084;-67
2021/11/01 17:36:14;;;;;;;17.85;8.05;;;;;;;;;;5073391;28;20106;-68
2021/11/01 18:52:58;;;;;;;18.67;8.02;;;;;;;;;;5069112;28;20047;-63
2021/11/01 18:55:24;;;;;;;14.40;7.20;;;;;;;;;;5060147;28;20031;-64
2021/11/01 18:57:51;;;;;;;19.48;7.50;;;;;;;;;;5056497;28;20025;-64
2021/11/01 19:00:17;;;;;;;14.82;7.53;;;;;;;;;;5060408;28;20095;-63
2021/11/01 19:02:47;;;;;;;16.23;8.68;;;;;;;;;;5060912;28;20035;-63
2021/11/01 19:05:29;;;;;;;15.88;7.82;;;;;;;;;;5061875;28;20009;-62
2021/11/01 19:10:50;;;;;;;16.25;6.70;;;;;;;;;;5061028;28;20029;-64
2021/11/01 19:13:50;;;;;;;17.00;7.43;;;;;;;;;;5061604;28;20056;-63
2021/11/01 20:06:54;;;;;;;18.38;7.72;;;;;;;;;;5050913;28;20055;-62
2021/11/01 20:11:55;;;;;;;16.20;6.75;;;;;;;;;;5050341;28;20033;-63
2021/11/01 20:17:14;;;;;;;18.80;7.10;;;;;;;;;;5047078;28;20044;-63
2021/11/01 21:26:31;;;;;;;18.65;8.57;;;;;;;;;;5073678;28;20040;-62
2021/11/01 21:28:57;;;;;;;18.90;8.15;;;;;;;;;;5073535;28;20440;-64
2021/11/01 21:31:23;;;;;;;18.52;8.50;;;;;;;;;;5072022;28;20119;-64
2021/11/01 21:33:51;;;;;;;21.92;10.23;;;;;;;;;;5073037;28;20104;-63
2021/11/01 21:36:24;;;;;;;22.17;9.70;;;;;;;;;;5072062;28;20045;-64
2021/11/01 21:38:51;;;;;;;24.35;9.73;;;;;;;;;;5072010;28;20051;-63
2021/11/01 21:41:17;;;;;;;24.90;10.87;;;;;;;;;;4719974;28;9999766;-63
2021/11/01 21:43:43;;;;;;;20.63;8.48;;;;;;;;;;5069896;28;20032;-64
2021/11/01 21:46:09;;;;;;;20.73;8.73;;;;;;;;;;5069947;28;20047;-64
2021/11/01 21:48:35;;;;;;;20.38;8.38;;;;;;;;;;5069973;28;20021;-63
2021/11/01 21:51:01;;;;;;;19.08;8.18;;;;;;;;;;5070010;28;20040;-63
2021/11/01 21:53:29;;;;;;;18.10;7.80;;;;;;;;;;5069726;28;20044;-63
2021/11/01 21:55:56;;;;;;;18.65;7.50;;;;;;;;;;5069855;28;20060;-65
2021/11/01 22:09:47;;;;;;;17.60;6.57;;;;;;;;;;5007048;28;20076;-64
2021/11/01 22:18:06;;;;;;;17.80;6.68;;;;;;;;;;5069679;28;20039;-64
2021/11/01 22:20:36;;;;;;;16.60;6.28;;;;;;;;;;5069704;28;20031;-64
2021/11/01 22:23:10;;;;;;;20.10;6.50;;;;;;;;;;5069761;28;20034;-65
2021/11/01 22:25:45;;;;;;;15.73;6.20;;;;;;;;;;5068335;28;20028;-64
2021/11/01 22:33:55;;;;;;;16.05;5.95;;;;;;;;;;5069281;28;20075;-62
2021/11/01 22:39:16;;;;;;;18.08;6.30;;;;;;;;;;5069156;28;20039;-64
2021/11/01 22:58:01;;;;;;;14.40;6.22;;;;;;;;;;5093780;28;20032;-68
2021/11/01 23:00:42;;;;;;;15.18;5.80;;;;;;;;;;5093262;28;20111;-68
2021/11/01 23:03:18;;;;;;;18.88;6.43;;;;;;;;;;5074210;28;20016;-67
2021/11/01 23:06:16;;;;;;;15.48;6.00;;;;;;;;;;5093400;28;20103;-68
2021/11/01 23:33:13;;;;;;;15.35;5.20;;;;;;;;;;5092583;28;20035;-68
2021/11/01 23:35:39;;;;;;;14.27;5.38;;;;;;;;;;5092781;28;20048;-68
2021/11/01 23:38:05;;;;;;;18.55;6.03;;;;;;;;;;5092624;28;20047;-68
2021/11/01 23:40:31;;;;;;;16.10;5.55;;;;;;;;;;5092593;28;20020;-68
2021/11/01 23:42:58;;;;;;;18.92;6.60;;;;;;;;;;5093169;28;20026;-67
2021/11/01 23:45:24;;;;;;;16.52;5.80;;;;;;;;;;5074163;28;20028;-69
2021/11/01 23:47:50;;;;;;;16.95;5.50;;;;;;;;;;5092592;28;20073;-68
2021/11/01 23:50:16;;;;;;;14.65;5.10;;;;;;;;;;5092549;28;20031;-68
2021/11/01 23:52:54;;;;;;;15.38;5.53;;;;;;;;;;5092039;28;20043;-68
2021/11/01 23:55:20;;;;;;;18.38;5.03;;;;;;;;;;5092757;28;20020;-68
2021/11/01 23:57:46;;;;;;;16.13;4.80;;;;;;;;;;5092446;28;20207;-68
